createdAt,value
2018-05-29T00:02:24.893Z,99.90
2018-05-29T00:04:52.386Z,99.90
2018-05-29T00:07:20.615Z,99.90
2018-05-29T00:09:48.092Z,99.90
2018-05-29T00:12:15.577Z,99.90
2018-05-29T00:14:43.805Z,99.90
2018-05-29T00:17:11.273Z,99.90
2018-05-29T00:19:38.760Z,99.90
2018-05-29T00:22:06.224Z,99.90
2018-05-29T00:24:34.497Z,99.90
2018-05-29T00:27:01.945Z,99.90
2018-05-29T00:29:29.443Z,99.90
2018-05-29T00:31:56.909Z,99.90
2018-05-29T00:34:24.396Z,99.90
2018-05-29T00:36:51.861Z,99.90
2018-05-29T00:39:19.344Z,99.90
2018-05-29T00:41:47.569Z,99.90
2018-05-29T00:44:15.051Z,99.90
2018-05-29T00:46:42.528Z,99.90
2018-05-29T00:49:10.772Z,99.90
2018-05-29T00:51:38.232Z,99.90
2018-05-29T00:54:05.708Z,99.90
2018-05-29T00:56:33.937Z,99.90
2018-05-29T00:59:01.420Z,99.90
2018-05-29T01:01:28.892Z,99.90
2018-05-29T01:03:56.378Z,99.90
2018-05-29T01:06:23.861Z,99.90
2018-05-29T01:08:51.346Z,99.90
2018-05-29T01:11:18.818Z,99.90
2018-05-29T01:13:46.304Z,99.90
2018-05-29T01:16:13.826Z,99.90
2018-05-29T01:18:41.292Z,99.90
2018-05-29T01:21:08.773Z,99.90
2018-05-29T01:23:36.236Z,99.90
2018-05-29T01:26:03.726Z,99.90
2018-05-29T01:28:31.197Z,99.90
2018-05-29T01:30:58.663Z,99.90
2018-05-29T01:33:26.154Z,99.90
2018-05-29T01:35:53.687Z,99.90
2018-05-29T01:38:21.168Z,99.90
2018-05-29T01:40:49.402Z,99.90
2018-05-29T01:43:16.893Z,99.90
2018-05-29T01:45:45.117Z,99.90
2018-05-29T01:48:12.578Z,99.90
2018-05-29T01:50:40.073Z,99.90
2018-05-29T01:53:08.309Z,99.90
2018-05-29T01:55:35.789Z,99.90
2018-05-29T01:58:03.277Z,99.90
2018-05-29T02:00:31.522Z,99.90
2018-05-29T02:02:58.981Z,99.90
2018-05-29T02:05:26.461Z,99.90
2018-05-29T02:07:54.697Z,99.90
2018-05-29T02:10:22.186Z,99.90
2018-05-29T02:12:50.415Z,99.90
2018-05-29T02:15:17.877Z,99.90
2018-05-29T02:17:45.361Z,99.90
2018-05-29T02:20:12.860Z,99.90
2018-05-29T02:22:40.318Z,99.90
2018-05-29T02:25:07.797Z,99.90
2018-05-29T02:27:35.256Z,99.90
2018-05-29T02:30:02.726Z,99.90
2018-05-29T02:32:30.974Z,99.90
2018-05-29T02:34:58.444Z,99.90
2018-05-29T02:37:25.901Z,99.90
2018-05-29T02:39:53.395Z,99.90
2018-05-29T02:42:21.633Z,99.90
2018-05-29T02:44:49.110Z,99.90
2018-05-29T02:47:16.590Z,99.90
2018-05-29T02:49:44.822Z,99.90
2018-05-29T02:52:12.283Z,99.90
2018-05-29T02:54:39.765Z,99.90
2018-05-29T02:57:07.313Z,99.90
2018-05-29T02:59:34.791Z,99.90
2018-05-29T03:02:03.033Z,99.90
2018-05-29T03:04:30.511Z,99.90
2018-05-29T03:06:57.977Z,99.90
2018-05-29T03:09:26.228Z,99.90
2018-05-29T03:11:53.694Z,99.90
2018-05-29T03:14:21.157Z,99.90
2018-05-29T03:16:48.632Z,99.90
2018-05-29T03:19:16.856Z,99.90
2018-05-29T03:21:45.961Z,99.90
2018-05-29T03:24:13.429Z,99.90
2018-05-29T03:26:40.892Z,99.90
2018-05-29T03:29:08.446Z,99.90
2018-05-29T03:31:35.917Z,99.90
2018-05-29T03:34:03.377Z,99.90
2018-05-29T03:36:31.612Z,99.90
2018-05-29T03:38:59.080Z,99.90
2018-05-29T03:41:26.549Z,99.90
2018-05-29T03:43:54.097Z,99.90
2018-05-29T03:46:21.557Z,99.90
2018-05-29T03:48:49.801Z,99.90
2018-05-29T03:51:17.274Z,99.90
2018-05-29T03:53:44.732Z,99.90
2018-05-29T03:56:12.221Z,99.90
2018-05-29T03:58:39.697Z,99.90
2018-05-29T04:01:07.222Z,99.90
2018-05-29T04:03:34.700Z,99.90
2018-05-29T04:06:02.938Z,99.90
2018-05-29T04:08:30.397Z,99.90
2018-05-29T04:10:57.888Z,99.90
2018-05-29T04:13:26.126Z,99.90
2018-05-29T04:15:53.661Z,99.90
2018-05-29T04:18:21.845Z,99.90
2018-05-29T04:20:49.317Z,99.90
2018-05-29T04:23:16.798Z,99.90
2018-05-29T04:25:45.051Z,99.90
2018-05-29T04:28:12.513Z,99.90
2018-05-29T04:30:39.993Z,99.90
2018-05-29T04:33:08.233Z,99.90
2018-05-29T04:35:35.688Z,99.90
2018-05-29T04:38:03.173Z,99.90
2018-05-29T04:40:31.422Z,99.90
2018-05-29T04:42:58.893Z,99.90
2018-05-29T04:45:26.388Z,99.90
2018-05-29T04:47:53.887Z,99.90
2018-05-29T04:50:21.349Z,99.90
2018-05-29T04:52:48.840Z,99.90
2018-05-29T04:55:17.081Z,99.90
2018-05-29T04:57:44.546Z,99.90
2018-05-29T05:00:12.031Z,99.90
2018-05-29T05:02:40.297Z,99.90
2018-05-29T05:05:07.754Z,99.90
2018-05-29T05:07:36.037Z,99.90
2018-05-29T05:10:04.413Z,99.90
2018-05-29T05:12:32.652Z,99.90
2018-05-29T05:15:00.477Z,99.90
2018-05-29T05:17:27.949Z,99.90
2018-05-29T05:19:55.416Z,99.90
2018-05-29T05:22:22.920Z,99.90
2018-05-29T05:24:51.152Z,99.90
2018-05-29T05:27:18.638Z,99.90
2018-05-29T05:29:46.197Z,99.90
2018-05-29T05:32:13.664Z,99.90
2018-05-29T05:34:41.929Z,99.90
2018-05-29T05:37:09.488Z,99.90
2018-05-29T05:39:36.958Z,99.90
2018-05-29T05:42:05.201Z,99.90
2018-05-29T05:44:32.682Z,99.90
2018-05-29T05:47:00.915Z,99.90
2018-05-29T05:49:28.405Z,99.90
2018-05-29T05:51:55.872Z,99.90
2018-05-29T05:54:24.109Z,99.90
2018-05-29T05:56:51.601Z,99.90
2018-05-29T05:59:19.877Z,99.90
2018-05-29T06:01:48.114Z,99.90
2018-05-29T06:04:15.606Z,99.90
2018-05-29T06:06:43.828Z,99.90
2018-05-29T06:09:11.298Z,99.90
2018-05-29T06:11:38.801Z,99.90
2018-05-29T06:14:07.044Z,99.90
2018-05-29T06:16:34.506Z,99.90
2018-05-29T06:19:02.001Z,99.90
2018-05-29T06:21:29.468Z,99.90
2018-05-29T06:23:56.953Z,99.90
2018-05-29T06:26:24.433Z,99.90
2018-05-29T06:28:51.910Z,99.90
2018-05-29T06:31:20.225Z,99.90
2018-05-29T06:33:47.685Z,99.90
2018-05-29T06:36:15.149Z,99.90
2018-05-29T06:38:42.708Z,99.90
2018-05-29T06:41:10.897Z,99.90
2018-05-29T06:43:38.351Z,99.90
2018-05-29T06:46:05.835Z,99.90
2018-05-29T06:48:33.308Z,99.90
2018-05-29T06:51:01.548Z,99.90
2018-05-29T06:53:29.036Z,99.90
2018-05-29T06:55:57.267Z,99.90
2018-05-29T06:58:24.745Z,99.90
2018-05-29T07:00:52.223Z,99.90
2018-05-29T07:03:20.485Z,99.90
2018-05-29T07:05:47.956Z,99.90
2018-05-29T07:08:16.193Z,99.90
2018-05-29T07:10:43.673Z,99.90
2018-05-29T07:13:11.158Z,99.90
2018-05-29T07:15:39.391Z,99.90
2018-05-29T07:18:06.877Z,99.90
2018-05-29T07:20:35.117Z,99.90
2018-05-29T07:23:02.592Z,99.90
2018-05-29T07:25:30.070Z,99.90
2018-05-29T07:27:58.305Z,99.90
2018-05-29T07:30:25.776Z,99.90
2018-05-29T07:32:53.261Z,99.90
2018-05-29T07:35:21.492Z,99.90
2018-05-29T07:37:48.959Z,99.90
2018-05-29T07:40:17.959Z,99.90
2018-05-29T07:42:45.413Z,99.90
2018-05-29T07:45:12.889Z,99.90
2018-05-29T07:47:40.361Z,99.90
2018-05-29T07:50:07.824Z,99.90
2018-05-29T07:52:35.361Z,99.90
2018-05-29T07:55:03.621Z,99.90
2018-05-29T07:57:31.849Z,99.90
2018-05-29T07:59:59.435Z,99.90
2018-05-29T08:02:26.925Z,99.90
2018-05-29T08:04:55.157Z,99.90
2018-05-29T08:07:22.635Z,99.90
2018-05-29T08:09:50.106Z,99.90
2018-05-29T08:12:18.341Z,99.90
2018-05-29T08:14:45.828Z,99.90
2018-05-29T08:17:14.810Z,99.90
2018-05-29T08:19:42.276Z,99.90
2018-05-29T08:22:10.533Z,99.90
2018-05-29T08:24:38.016Z,99.90
2018-05-29T08:27:05.490Z,99.90
2018-05-29T08:29:33.850Z,99.90
2018-05-29T08:32:02.080Z,99.90
2018-05-29T08:34:29.553Z,99.90
2018-05-29T08:36:57.041Z,99.90
2018-05-29T08:39:24.553Z,99.90
2018-05-29T08:41:52.860Z,99.90
2018-05-29T08:44:20.342Z,99.90
2018-05-29T08:46:48.574Z,99.90
2018-05-29T08:49:16.048Z,99.90
2018-05-29T08:51:43.516Z,99.90
2018-05-29T08:54:11.751Z,99.90
2018-05-29T08:56:39.225Z,99.90
2018-05-29T08:59:06.689Z,99.90
2018-05-29T09:01:34.154Z,99.90
2018-05-29T09:04:02.457Z,99.90
2018-05-29T09:06:29.895Z,99.90
2018-05-29T09:08:58.164Z,99.90
2018-05-29T09:11:26.418Z,99.90
2018-05-29T09:13:53.885Z,99.90
2018-05-29T09:16:21.356Z,99.90
2018-05-29T09:18:48.896Z,99.90
2018-05-29T09:21:16.365Z,99.90
2018-05-29T09:23:43.850Z,99.90
2018-05-29T09:26:11.322Z,99.90
2018-05-29T09:28:38.841Z,99.90
2018-05-29T09:31:07.082Z,98.30
2018-05-29T09:33:34.548Z,98.30
2018-05-29T09:36:02.038Z,97.70
2018-05-29T09:38:30.269Z,95.60
2018-05-29T09:40:57.732Z,95.60
2018-05-29T09:43:25.208Z,94.90
2018-05-29T09:45:52.686Z,93.50
2018-05-29T09:48:20.229Z,92.80
2018-05-29T09:50:47.688Z,93.90
2018-05-29T09:53:15.918Z,93.70
2018-05-29T09:55:43.392Z,93.60
2018-05-29T09:58:10.994Z,93.50
2018-05-29T10:00:40.914Z,91.80
2018-05-29T10:03:10.710Z,91.80
2018-05-29T10:05:39.520Z,90.30
2018-05-29T10:08:07.000Z,90.30
2018-05-29T10:10:34.476Z,90.30
2018-05-29T10:13:01.958Z,90.20
2018-05-29T10:15:29.513Z,90.00
2018-05-29T10:17:56.973Z,88.40
2018-05-29T10:20:24.448Z,88.50
2018-05-29T10:22:52.706Z,89.70
2018-05-29T10:25:20.177Z,89.60
2018-05-29T10:27:48.407Z,90.20
2018-05-29T10:30:15.894Z,90.20
2018-05-29T10:32:43.360Z,85.70
2018-05-29T10:35:11.598Z,88.20
2018-05-29T10:37:39.074Z,87.50
2018-05-29T10:40:06.550Z,86.90
2018-05-29T10:42:34.797Z,84.90
2018-05-29T10:45:02.261Z,84.90
2018-05-29T10:47:29.817Z,84.10
2018-05-29T10:49:57.404Z,84.80
2018-05-29T10:52:25.681Z,83.70
2018-05-29T10:54:53.100Z,83.80
2018-05-29T10:57:20.593Z,80.30
2018-05-29T10:59:48.833Z,79.40
2018-05-29T11:02:17.828Z,82.30
2018-05-29T11:04:46.097Z,83.60
2018-05-29T11:07:13.608Z,83.60
2018-05-29T11:09:41.133Z,84.70
2018-05-29T11:12:08.626Z,85.40
2018-05-29T11:14:36.090Z,83.40
2018-05-29T11:17:03.584Z,83.40
2018-05-29T11:19:31.130Z,84.60
2018-05-29T11:21:58.676Z,87.60
2018-05-29T11:24:26.191Z,85.50
2018-05-29T11:26:54.481Z,88.00
2018-05-29T11:29:21.968Z,87.90
2018-05-29T11:31:49.468Z,88.20
2018-05-29T11:34:16.949Z,89.60
2018-05-29T11:36:44.422Z,90.60
2018-05-29T11:39:11.895Z,92.70
2018-05-29T11:41:39.389Z,90.80
2018-05-29T11:44:06.870Z,91.20
2018-05-29T11:46:35.116Z,90.60
2018-05-29T11:49:02.585Z,90.60
2018-05-29T11:51:30.820Z,89.00
2018-05-29T11:53:58.309Z,89.30
2018-05-29T11:56:25.797Z,88.90
2018-05-29T11:58:54.037Z,86.80
2018-05-29T12:01:21.514Z,86.70
2018-05-29T12:03:49.761Z,86.00
2018-05-29T12:06:19.107Z,86.00
2018-05-29T12:08:46.586Z,87.60
2018-05-29T12:11:14.053Z,86.50
2018-05-29T12:13:41.529Z,85.90
2018-05-29T12:16:09.120Z,84.30
2018-05-29T12:18:37.348Z,80.50
2018-05-29T12:21:04.820Z,80.50
2018-05-29T12:23:33.816Z,77.80
2018-05-29T12:26:01.298Z,77.80
2018-05-29T12:28:29.561Z,78.20
2018-05-29T12:30:57.037Z,78.10
2018-05-29T12:33:25.272Z,78.20
2018-05-29T12:35:52.753Z,78.20
2018-05-29T12:38:20.989Z,79.90
2018-05-29T12:40:48.472Z,79.80
2018-05-29T12:43:15.954Z,80.00
2018-05-29T12:45:44.203Z,84.40
2018-05-29T12:48:11.761Z,84.30
2018-05-29T12:50:39.236Z,85.00
2018-05-29T12:53:07.472Z,87.30
2018-05-29T12:55:34.988Z,87.30
2018-05-29T12:58:02.450Z,89.40
2018-05-29T13:00:29.933Z,88.80
2018-05-29T13:02:57.404Z,88.10
2018-05-29T13:05:24.913Z,89.10
2018-05-29T13:07:52.341Z,90.80
2018-05-29T13:10:19.827Z,90.60
2018-05-29T13:12:47.353Z,91.30
2018-05-29T13:15:14.845Z,91.90
2018-05-29T13:17:42.328Z,91.40
2018-05-29T13:20:09.840Z,91.60
2018-05-29T13:22:38.127Z,91.90
2018-05-29T13:25:05.578Z,91.90
2018-05-29T13:27:33.801Z,92.10
2018-05-29T13:30:01.282Z,92.10
2018-05-29T13:32:29.685Z,92.00
2018-05-29T13:34:57.937Z,92.60
2018-05-29T13:37:25.414Z,92.60
2018-05-29T13:39:53.669Z,93.50
2018-05-29T13:42:21.140Z,93.60
2018-05-29T13:44:48.622Z,93.40
2018-05-29T13:47:16.101Z,93.10
2018-05-29T13:49:43.564Z,93.10
2018-05-29T13:52:11.052Z,93.60
2018-05-29T13:54:38.533Z,93.90
2018-05-29T13:57:06.768Z,94.90
2018-05-29T13:59:34.272Z,94.90
2018-05-29T14:02:02.501Z,99.90
2018-05-29T14:04:29.978Z,99.90
2018-05-29T14:06:57.469Z,99.90
2018-05-29T14:09:24.934Z,99.90
2018-05-29T14:11:52.388Z,99.90
2018-05-29T14:14:19.902Z,99.90
2018-05-29T14:16:47.369Z,99.90
2018-05-29T14:19:15.612Z,99.90
2018-05-29T14:21:43.093Z,99.90
2018-05-29T14:24:10.570Z,99.90
2018-05-29T14:26:38.802Z,99.90
2018-05-29T14:29:06.284Z,99.90
2018-05-29T14:31:34.522Z,99.90
2018-05-29T14:34:01.993Z,99.90
2018-05-29T14:36:29.482Z,99.90
2018-05-29T14:38:57.734Z,99.90
2018-05-29T14:41:25.201Z,99.90
2018-05-29T14:43:53.550Z,99.90
2018-05-29T14:46:20.926Z,99.90
2018-05-29T14:48:48.409Z,99.90
2018-05-29T14:51:16.632Z,99.90
2018-05-29T14:53:44.118Z,99.90
2018-05-29T14:56:11.606Z,99.90
2018-05-29T14:58:39.140Z,99.90
2018-05-29T15:01:06.553Z,99.90
2018-05-29T15:03:34.047Z,99.90
2018-05-29T15:06:03.066Z,99.90
2018-05-29T15:08:30.549Z,99.90
2018-05-29T15:10:58.044Z,99.90
2018-05-29T15:13:25.513Z,99.90
2018-05-29T15:15:53.834Z,99.90
2018-05-29T15:18:21.305Z,99.90
2018-05-29T15:20:48.788Z,99.90
2018-05-29T15:23:16.265Z,99.90
2018-05-29T15:25:44.506Z,99.90
2018-05-29T15:28:11.979Z,99.90
2018-05-29T15:30:39.948Z,99.90
2018-05-29T15:33:07.463Z,99.90
2018-05-29T15:35:34.929Z,99.90
2018-05-29T15:38:02.406Z,99.90
2018-05-29T15:40:29.898Z,99.90
2018-05-29T15:42:58.141Z,99.90
2018-05-29T15:45:25.740Z,99.90
2018-05-29T15:47:53.976Z,99.90
2018-05-29T15:50:21.461Z,99.90
2018-05-29T15:52:49.712Z,99.90
2018-05-29T15:55:17.184Z,99.90
2018-05-29T15:57:45.408Z,99.90
2018-05-29T16:00:13.019Z,99.90
2018-05-29T16:02:41.261Z,99.90
2018-05-29T16:05:08.756Z,99.90
2018-05-29T16:07:37.008Z,99.90
2018-05-29T16:10:04.494Z,99.90
2018-05-29T16:12:32.868Z,99.90
2018-05-29T16:15:01.106Z,99.90
2018-05-29T16:17:28.716Z,99.90
2018-05-29T16:19:56.348Z,99.90
2018-05-29T16:22:23.821Z,99.90
2018-05-29T16:24:52.061Z,99.90
2018-05-29T16:27:19.553Z,99.90
2018-05-29T16:29:47.805Z,99.90
2018-05-29T16:32:15.260Z,99.90
2018-05-29T16:34:42.786Z,99.90
2018-05-29T16:37:10.234Z,99.90
2018-05-29T16:39:37.706Z,99.90
2018-05-29T16:42:05.205Z,99.90
2018-05-29T16:44:33.453Z,99.90
2018-05-29T16:47:00.917Z,99.90
2018-05-29T16:49:28.415Z,99.90
2018-05-29T16:51:56.655Z,99.90
2018-05-29T16:54:24.142Z,99.90
2018-05-29T16:56:51.685Z,99.90
2018-05-29T16:59:20.728Z,99.90
2018-05-29T17:01:48.989Z,99.90
2018-05-29T17:04:16.454Z,99.90
2018-05-29T17:06:43.921Z,99.90
2018-05-29T17:09:11.400Z,99.90
2018-05-29T17:11:39.328Z,99.90
2018-05-29T17:14:06.849Z,99.90
2018-05-29T17:16:35.117Z,99.90
2018-05-29T17:19:03.349Z,99.90
2018-05-29T17:21:30.818Z,99.90
2018-05-29T17:23:58.307Z,99.90
2018-05-29T17:26:26.681Z,99.90
2018-05-29T17:28:54.145Z,99.90
2018-05-29T17:31:22.410Z,99.90
2018-05-29T17:33:49.881Z,99.90
2018-05-29T17:36:18.129Z,99.90
2018-05-29T17:38:45.592Z,99.90
2018-05-29T17:41:13.113Z,99.90
2018-05-29T17:43:40.572Z,99.90
2018-05-29T17:46:08.045Z,99.90
2018-05-29T17:48:35.779Z,99.90
2018-05-29T17:51:03.268Z,99.90
2018-05-29T17:53:31.102Z,99.90
2018-05-29T17:55:58.972Z,99.90
2018-05-29T17:58:26.730Z,99.90
2018-05-29T18:00:54.428Z,99.90
2018-05-29T18:03:23.417Z,99.90
2018-05-29T18:05:51.148Z,99.90
2018-05-29T18:08:18.798Z,99.90
2018-05-29T18:10:46.572Z,99.90
2018-05-29T18:13:14.428Z,99.90
2018-05-29T18:15:42.101Z,99.90
2018-05-29T18:18:09.868Z,99.90
2018-05-29T18:20:37.384Z,99.90
2018-05-29T18:23:05.613Z,99.90
2018-05-29T18:25:33.127Z,99.90
2018-05-29T18:28:01.526Z,99.90
2018-05-29T18:30:29.032Z,99.90
2018-05-29T18:32:56.485Z,99.90
2018-05-29T18:35:23.964Z,99.90
2018-05-29T18:37:52.240Z,99.90
2018-05-29T18:40:20.486Z,99.90
2018-05-29T18:42:47.949Z,99.90
2018-05-29T18:45:15.465Z,99.90
2018-05-29T18:47:43.083Z,99.90
2018-05-29T18:50:10.601Z,99.90
2018-05-29T18:52:38.039Z,99.90
2018-05-29T18:55:05.582Z,99.90
2018-05-29T18:57:33.068Z,99.90
2018-05-29T19:00:00.561Z,99.90
2018-05-29T19:02:28.819Z,99.90
2018-05-29T19:04:56.290Z,99.90
2018-05-29T19:07:23.772Z,99.90
2018-05-29T19:09:52.092Z,99.90
2018-05-29T19:12:20.275Z,99.90
2018-05-29T19:14:47.757Z,99.90
2018-05-29T19:17:16.047Z,99.90
2018-05-29T19:19:44.299Z,99.90
2018-05-29T19:22:11.857Z,99.90
2018-05-29T19:24:39.353Z,99.90
2018-05-29T19:27:06.828Z,99.90
2018-05-29T19:29:34.306Z,99.90
2018-05-29T19:32:02.053Z,99.90
2018-05-29T19:34:30.472Z,99.90
2018-05-29T19:36:58.736Z,99.90
2018-05-29T19:39:27.066Z,99.90
2018-05-29T19:41:55.293Z,99.90
2018-05-29T19:44:22.806Z,99.90
2018-05-29T19:46:50.283Z,99.90
2018-05-29T19:49:17.772Z,99.90
2018-05-29T19:51:45.264Z,99.90
2018-05-29T19:54:12.831Z,99.90
2018-05-29T19:56:40.297Z,99.90
2018-05-29T19:59:08.333Z,99.90
2018-05-29T20:01:36.699Z,99.90
2018-05-29T20:04:04.169Z,99.90
2018-05-29T20:06:32.419Z,99.90
2018-05-29T20:08:59.912Z,99.90
2018-05-29T20:11:28.166Z,99.90
2018-05-29T20:13:56.299Z,99.90
2018-05-29T20:16:23.818Z,99.90
2018-05-29T20:18:51.286Z,99.90
2018-05-29T20:21:18.765Z,99.90
2018-05-29T20:23:46.268Z,99.90
2018-05-29T20:26:14.696Z,99.90
2018-05-29T20:28:42.189Z,99.90
2018-05-29T20:31:09.713Z,99.90
2018-05-29T20:33:37.188Z,99.90
2018-05-29T20:36:04.673Z,99.90
2018-05-29T20:38:32.908Z,99.90
2018-05-29T20:41:00.373Z,99.90
2018-05-29T20:43:27.873Z,99.90
2018-05-29T20:45:56.181Z,99.90
2018-05-29T20:48:23.642Z,99.90
2018-05-29T20:50:51.341Z,99.90
2018-05-29T20:53:20.328Z,99.90
2018-05-29T20:55:47.783Z,99.90
2018-05-29T20:58:15.307Z,99.90
2018-05-29T21:00:42.770Z,99.90
2018-05-29T21:03:10.221Z,99.90
2018-05-29T21:05:37.724Z,99.90
2018-05-29T21:08:05.294Z,99.90
2018-05-29T21:10:33.529Z,99.90
2018-05-29T21:13:01.004Z,99.90
2018-05-29T21:15:28.466Z,99.90
2018-05-29T21:17:55.921Z,99.90
2018-05-29T21:20:23.409Z,99.90
2018-05-29T21:22:51.770Z,99.90
2018-05-29T21:25:19.992Z,99.90
2018-05-29T21:27:47.470Z,99.90
2018-05-29T21:30:14.932Z,99.90
2018-05-29T21:32:42.417Z,99.90
2018-05-29T21:35:09.921Z,99.90
2018-05-29T21:37:37.376Z,99.90
2018-05-29T21:40:04.865Z,99.90
2018-05-29T21:42:32.327Z,99.90
2018-05-29T21:44:59.789Z,99.90
2018-05-29T21:47:27.351Z,99.90
2018-05-29T21:49:54.829Z,99.90
2018-05-29T21:52:23.070Z,99.90
2018-05-29T21:54:51.297Z,99.90
2018-05-29T21:57:18.753Z,99.90
2018-05-29T21:59:46.328Z,99.90
2018-05-29T22:02:13.812Z,99.90
2018-05-29T22:04:41.358Z,99.90
2018-05-29T22:07:08.841Z,99.90
2018-05-29T22:09:36.304Z,99.90
2018-05-29T22:14:38.691Z,99.90
2018-05-29T22:17:07.121Z,99.90
2018-05-29T22:19:34.592Z,99.90
2018-05-29T22:22:02.057Z,99.90
2018-05-29T22:24:29.527Z,99.90
2018-05-29T22:26:56.981Z,99.90
2018-05-29T22:29:24.541Z,99.90
2018-05-29T22:31:52.010Z,99.90
2018-05-29T22:34:19.473Z,99.90
2018-05-29T22:36:47.726Z,99.90
2018-05-29T22:39:15.184Z,99.90
2018-05-29T22:41:42.641Z,99.90
2018-05-29T22:44:10.131Z,99.90
2018-05-29T22:46:38.353Z,99.90
2018-05-29T22:49:05.991Z,99.90
2018-05-29T22:51:33.453Z,99.90
2018-05-29T22:54:00.927Z,99.90
2018-05-29T22:56:28.389Z,99.90
2018-05-29T22:58:55.873Z,99.90
2018-05-29T23:01:23.346Z,99.90
2018-05-29T23:03:51.567Z,99.90
2018-05-29T23:06:19.040Z,99.90
2018-05-29T23:08:46.512Z,99.90
2018-05-29T23:11:13.978Z,99.90
2018-05-29T23:13:41.452Z,99.90
2018-05-29T23:16:09.680Z,99.90
2018-05-29T23:18:37.140Z,99.90
2018-05-29T23:21:04.617Z,99.90
2018-05-29T23:23:32.081Z,99.90
2018-05-29T23:26:00.339Z,99.90
2018-05-29T23:28:27.830Z,99.90
2018-05-29T23:30:56.052Z,99.90
2018-05-29T23:33:23.509Z,99.90
2018-05-29T23:35:50.981Z,99.90
2018-05-29T23:38:18.460Z,99.90
2018-05-29T23:40:46.820Z,99.90
2018-05-29T23:43:15.788Z,99.90
2018-05-29T23:45:43.264Z,99.90
2018-05-29T23:48:10.753Z,99.90
2018-05-29T23:50:38.213Z,99.90
2018-05-29T23:53:05.737Z,99.90
2018-05-29T23:55:33.198Z,99.90
2018-05-29T23:58:00.710Z,99.90
